Terminal Aerodrome Forecast
Issued by NWS Twin Cities, MN

Home | Current Version | Previous Version | Text Only | Print | Product List | Glossary On
Versions: 1 2 3 4 5 6 7 8 9 10 11 12 13
000
FTUS43 KMPX 031120
TAFSTC
TAF
KSTC 031120Z 0312/0412 17012KT P6SM BKN020 OVC040
     FM031600 18010KT 6SM -SHRA BR VCTS BKN020CB
     FM032200 23006KT P6SM SCT025 BKN050
     FM040300 30004KT P6SM SCT030 OVC100
     FM040800 35003KT 3SM BR SCT008 OVC012=

USA.gov is the U.S. government's official web portal to all federal, state and local government web resources and services.